Time;durP1;ratioP1;P1;durP2;ratioP2;P2;SDS_P1;SDS_P2;PMS_P1;PMS_P2;Temp;Humidity;BMP_temperature;BMP_pressure;BME280_temperature;BME280_humidity;BME280_pressure;Samples;Min_cycle;Max_cycle;Signal;HPM_P1;HPM_P2
2022/08/29 00:01:12;;;;;;;3.58;2.33;;;;;;;19.48;45.70;102053.53;5095925;28;20051;-69
2022/08/29 00:03:43;;;;;;;5.68;2.47;;;;;;;19.47;45.57;102057.25;5088807;28;20540;-69
2022/08/29 00:06:10;;;;;;;4.82;2.40;;;;;;;19.45;45.71;102047.50;5092471;28;20499;-68
2022/08/29 00:08:37;;;;;;;4.78;2.38;;;;;;;19.42;45.68;102048.63;5095751;28;20436;-67
2022/08/29 00:11:05;;;;;;;5.43;2.92;;;;;;;19.40;45.68;102053.34;5095607;28;20047;-67
2022/08/29 00:13:36;;;;;;;6.40;2.90;;;;;;;19.36;46.12;102051.91;5095543;28;20062;-68
2022/08/29 00:16:03;;;;;;;3.70;2.70;;;;;;;19.35;45.95;102048.31;5095427;28;20541;-69
2022/08/29 00:18:30;;;;;;;7.18;2.80;;;;;;;19.32;45.76;102043.16;5095328;28;20080;-68
2022/08/29 00:20:56;;;;;;;7.03;3.00;;;;;;;19.28;46.08;102040.81;5094986;28;20393;-68
2022/08/29 00:23:27;;;;;;;7.60;3.88;;;;;;;19.22;46.10;102042.22;5095114;28;20055;-69
2022/08/29 00:25:55;;;;;;;4.05;2.67;;;;;;;19.20;46.35;102044.22;5094863;28;20062;-68
2022/08/29 00:28:22;;;;;;;6.45;3.03;;;;;;;19.18;46.18;102040.75;5094906;28;20069;-68
2022/08/29 00:30:50;;;;;;;5.22;3.17;;;;;;;19.15;46.38;102038.31;5094748;28;20406;-68
2022/08/29 00:33:18;;;;;;;5.30;2.88;;;;;;;19.14;46.73;102042.03;5096068;28;20036;-68
2022/08/29 00:35:46;;;;;;;5.70;2.80;;;;;;;19.12;46.63;102046.75;5095984;28;20135;-68
2022/08/29 00:38:15;;;;;;;6.10;2.95;;;;;;;19.10;46.37;102047.88;5094969;28;20478;-68
2022/08/29 00:40:47;;;;;;;5.47;3.25;;;;;;;19.07;46.89;102046.28;5090763;28;20060;-68
2022/08/29 00:43:23;;;;;;;4.55;2.55;;;;;;;19.02;46.92;102046.69;5074976;28;20037;-69
2022/08/29 00:46:07;;;;;;;7.28;3.42;;;;;;;19.00;46.89;102054.13;5057553;28;20107;-68
2022/08/29 00:48:36;;;;;;;4.60;2.90;;;;;;;18.94;47.19;102051.94;5075479;28;20063;-68
2022/08/29 00:51:07;;;;;;;6.05;3.10;;;;;;;18.90;47.49;102049.63;5057441;28;20043;-68
2022/08/29 00:53:42;;;;;;;7.18;2.97;;;;;;;18.82;47.52;102053.03;5075242;28;20048;-69
2022/08/29 00:56:13;;;;;;;5.95;3.00;;;;;;;18.79;47.80;102055.16;5074902;28;20135;-69
2022/08/29 00:58:44;;;;;;;8.60;3.85;;;;;;;18.77;47.71;102058.00;5075720;28;20045;-68
2022/08/29 01:01:11;;;;;;;6.47;3.58;;;;;;;18.74;47.69;102050.09;5074226;28;20449;-68
2022/08/29 01:03:40;;;;;;;5.80;3.40;;;;;;;18.69;48.01;102049.63;5074651;28;20522;-68
2022/08/29 01:06:09;;;;;;;6.05;3.25;;;;;;;18.64;47.82;102050.03;5074648;28;20048;-68
2022/08/29 01:08:36;;;;;;;4.82;3.20;;;;;;;18.62;48.21;102046.56;5076557;28;20487;-68
2022/08/29 01:13:54;;;;;;;4.82;2.40;;;;;;;18.56;47.89;102059.78;5093286;28;20038;-67
2022/08/29 01:16:22;;;;;;;3.42;2.47;;;;;;;18.50;47.51;102053.00;5094435;28;20059;-68
2022/08/29 01:18:53;;;;;;;4.55;2.63;;;;;;;18.47;47.56;102061.44;5094973;28;20045;-67
2022/08/29 01:21:28;;;;;;;6.43;2.97;;;;;;;18.47;47.60;102063.28;5094382;28;20040;-68
2022/08/29 01:24:13;;;;;;;4.80;2.40;;;;;;;18.42;47.59;102059.09;5076968;28;20043;-68
2022/08/29 01:26:43;;;;;;;4.32;2.55;;;;;;;18.42;47.29;102061.81;5076212;28;20046;-68
2022/08/29 01:29:10;;;;;;;4.25;2.67;;;;;;;18.41;47.34;102067.38;5094665;28;20040;-68
2022/08/29 01:31:40;;;;;;;5.32;2.65;;;;;;;18.39;47.58;102062.09;5094832;28;20055;-68
2022/08/29 01:34:28;;;;;;;5.03;3.25;;;;;;;18.38;47.70;102059.50;5095145;28;20052;-67
2022/08/29 01:37:01;;;;;;;5.20;2.90;;;;;;;18.36;47.52;102062.34;5077661;28;20052;-67
2022/08/29 01:39:30;;;;;;;5.70;3.22;;;;;;;18.33;47.65;102061.75;5094987;28;20036;-67
2022/08/29 01:41:59;;;;;;;4.55;3.22;;;;;;;18.31;47.75;102056.44;5094035;28;20040;-68
2022/08/29 01:44:25;;;;;;;4.80;3.13;;;;;;;18.25;47.46;102053.38;5076280;28;20058;-68
2022/08/29 01:46:55;;;;;;;5.47;3.00;;;;;;;18.17;47.87;102061.31;5076047;28;20039;-68
2022/08/29 01:49:29;;;;;;;4.97;3.40;;;;;;;18.10;47.82;102058.25;5076353;28;20040;-67
2022/08/29 01:51:55;;;;;;;6.35;3.33;;;;;;;18.06;47.90;102051.34;5093885;28;20509;-67
2022/08/29 01:54:24;;;;;;;7.10;3.70;;;;;;;18.00;48.10;102058.16;5094216;28;20047;-68
2022/08/29 01:56:52;;;;;;;10.05;3.50;;;;;;;17.96;48.45;102055.81;5094351;28;20379;-68
2022/08/29 01:59:26;;;;;;;6.82;3.65;;;;;;;17.89;48.24;102060.88;5093197;28;20490;-67
2022/08/29 02:01:58;;;;;;;5.57;3.28;;;;;;;17.83;48.35;102058.66;5093689;28;20119;-67
2022/08/29 02:04:27;;;;;;;8.07;3.55;;;;;;;17.78;48.47;102061.75;5094139;28;20115;-68
2022/08/29 02:06:55;;;;;;;5.00;3.25;;;;;;;17.74;48.38;102060.25;5093811;28;20410;-68
2022/08/29 02:09:23;;;;;;;7.05;3.53;;;;;;;17.70;48.94;102058.78;5093718;28;20044;-68
2022/08/29 02:11:51;;;;;;;7.05;3.60;;;;;;;17.66;48.74;102059.13;5093600;28;20059;-68
2022/08/29 02:14:20;;;;;;;5.35;3.15;;;;;;;17.63;49.13;102053.94;5093883;28;20055;-68
2022/08/29 02:16:47;;;;;;;7.53;3.30;;;;;;;17.58;48.99;102051.63;5093794;28;20525;-68
2022/08/29 02:19:14;;;;;;;5.28;3.17;;;;;;;17.56;49.18;102052.72;5095197;28;20036;-70
2022/08/29 02:21:42;;;;;;;4.20;3.28;;;;;;;17.51;48.91;102054.94;5093543;28;20040;-67
2022/08/29 02:24:16;;;;;;;6.35;2.90;;;;;;;17.50;49.06;102054.09;5093603;28;20044;-68
2022/08/29 02:26:54;;;;;;;4.75;2.95;;;;;;;17.50;49.25;102059.53;5093574;28;20044;-68
2022/08/29 02:29:20;;;;;;;4.65;2.70;;;;;;;17.49;49.02;102063.22;5093169;28;20044;-68
2022/08/29 02:31:47;;;;;;;5.60;2.97;;;;;;;17.47;48.84;102065.19;5080254;28;20518;-68
2022/08/29 02:34:15;;;;;;;3.40;2.40;;;;;;;17.45;48.69;102059.91;5085969;28;20044;-68
2022/08/29 02:36:42;;;;;;;5.78;2.60;;;;;;;17.43;48.72;102063.72;5093040;28;20056;-68
2022/08/29 02:39:10;;;;;;;6.72;2.92;;;;;;;17.40;48.60;102063.97;5093753;28;20440;-68
2022/08/29 02:41:37;;;;;;;3.95;2.92;;;;;;;17.38;48.75;102066.81;5092978;28;20050;-67
2022/08/29 02:44:06;;;;;;;4.32;2.70;;;;;;;17.33;48.80;102070.88;5081473;28;20036;-67
2022/08/29 02:46:32;;;;;;;7.30;2.78;;;;;;;17.28;48.79;102075.81;5072742;28;20501;-67
2022/08/29 02:48:59;;;;;;;3.83;2.53;;;;;;;17.25;48.79;102073.34;5072777;28;20036;-67
2022/08/29 02:51:30;;;;;;;6.53;3.05;;;;;;;17.23;48.81;102072.59;5072677;28;20437;-67
2022/08/29 02:53:59;;;;;;;5.30;2.65;;;;;;;17.22;48.94;102066.31;5072822;28;20055;-67
2022/08/29 02:56:26;;;;;;;8.23;3.45;;;;;;;17.24;48.72;102064.34;5088220;28;20417;-67
2022/08/29 02:58:53;;;;;;;6.43;3.45;;;;;;;17.27;48.84;102072.25;5074824;28;20036;-69
2022/08/29 03:01:21;;;;;;;6.38;3.55;;;;;;;17.28;48.76;102075.81;5087019;28;20062;-69
2022/08/29 03:03:50;;;;;;;4.70;3.22;;;;;;;17.27;48.97;102076.81;5072233;28;20478;-69
2022/08/29 03:06:18;;;;;;;5.88;3.03;;;;;;;17.23;49.07;102076.19;5073254;28;20505;-69
2022/08/29 03:08:45;;;;;;;4.15;3.00;;;;;;;17.24;49.05;102077.06;5092429;28;20492;-69
2022/08/29 03:11:12;;;;;;;7.93;3.20;;;;;;;17.23;49.37;102070.75;5092265;28;20142;-69
2022/08/29 03:13:45;;;;;;;5.55;3.13;;;;;;;17.26;49.58;102066.94;5092211;28;20402;-69
2022/08/29 03:16:12;;;;;;;6.78;3.15;;;;;;;17.26;49.23;102065.09;5072421;28;20037;-70
2022/08/29 03:18:39;;;;;;;7.18;3.55;;;;;;;17.27;49.23;102058.66;5092143;28;20040;-69
2022/08/29 03:21:14;;;;;;;6.13;3.83;;;;;;;17.25;49.18;102065.19;5073891;28;20449;-69
2022/08/29 03:23:45;;;;;;;6.20;3.05;;;;;;;17.21;49.17;102063.72;5091503;28;20405;-69
2022/08/29 03:26:12;;;;;;;4.88;3.25;;;;;;;17.19;48.84;102058.41;5091449;28;20130;-69
2022/08/29 03:28:38;;;;;;;4.25;2.70;;;;;;;17.16;48.96;102061.38;5090239;28;20040;-69
2022/08/29 03:31:05;;;;;;;5.72;3.00;;;;;;;17.15;49.15;102054.22;5071352;28;20055;-69
2022/08/29 03:33:36;;;;;;;5.05;3.42;;;;;;;17.15;49.04;102063.22;5071731;28;20544;-69
2022/08/29 03:36:04;;;;;;;6.53;3.13;;;;;;;17.15;48.92;102060.50;5072275;28;20075;-69
2022/08/29 03:38:45;;;;;;;5.32;3.10;;;;;;;17.15;49.18;102057.78;5072110;28;20048;-69
2022/08/29 03:41:20;;;;;;;4.20;3.42;;;;;;;17.14;49.38;102061.50;5078194;28;20097;-69
2022/08/29 03:43:50;;;;;;;5.10;3.25;;;;;;;17.13;49.41;102057.06;5092242;28;20040;-69
2022/08/29 03:46:17;;;;;;;6.47;3.30;;;;;;;17.13;49.26;102057.06;5092184;28;20127;-70
2022/08/29 03:48:44;;;;;;;5.22;3.60;;;;;;;17.10;49.25;102062.72;5076382;28;20048;-69
2022/08/29 03:51:10;;;;;;;4.10;2.90;;;;;;;17.09;49.15;102062.81;5071608;28;20257;-69
2022/08/29 03:53:39;;;;;;;5.28;3.33;;;;;;;17.08;49.35;102058.38;5054139;28;20079;-69
2022/08/29 03:56:06;;;;;;;5.55;3.10;;;;;;;17.07;49.53;102053.94;5054176;28;20040;-69
2022/08/29 03:58:36;;;;;;;8.65;3.78;;;;;;;17.05;49.52;102047.75;5054533;28;20036;-70
2022/08/29 04:01:04;;;;;;;4.40;3.00;;;;;;;17.04;49.31;102046.88;5078435;28;20036;-68
2022/08/29 04:03:34;;;;;;;6.18;3.25;;;;;;;17.05;49.40;102048.63;5091963;28;20040;-69
2022/08/29 04:06:01;;;;;;;4.32;2.60;;;;;;;17.07;49.57;102046.66;5075445;28;20047;-69
2022/08/29 04:08:28;;;;;;;4.88;3.30;;;;;;;17.08;49.67;102050.22;5071832;28;20045;-69
2022/08/29 04:10:54;;;;;;;6.97;3.20;;;;;;;17.08;49.56;102044.78;5071440;28;20040;-69
2022/08/29 04:13:25;;;;;;;3.97;2.90;;;;;;;17.07;49.49;102041.22;5071560;28;20033;-69
2022/08/29 04:15:52;;;;;;;6.30;3.75;;;;;;;17.05;49.76;102045.03;5071560;28;20081;-69
2022/08/29 04:18:19;;;;;;;5.15;3.35;;;;;;;17.01;49.66;102044.41;5090272;28;20407;-69
2022/08/29 04:20:48;;;;;;;6.15;3.28;;;;;;;16.97;49.56;102045.66;5090907;28;20044;-69
2022/08/29 04:23:18;;;;;;;6.72;3.20;;;;;;;16.95;49.46;102041.31;5091808;28;20055;-70
2022/08/29 04:25:45;;;;;;;7.22;3.65;;;;;;;16.94;49.65;102039.59;5091994;28;20048;-69
2022/08/29 04:28:13;;;;;;;5.63;4.38;;;;;;;16.93;49.73;102038.72;5090730;28;20043;-69
2022/08/29 04:30:48;;;;;;;6.20;4.18;;;;;;;16.93;49.52;102038.72;5090813;28;20032;-69
2022/08/29 04:33:21;;;;;;;8.57;3.80;;;;;;;16.89;49.54;102031.81;5091647;28;20554;-70
2022/08/29 04:35:48;;;;;;;5.80;3.45;;;;;;;16.84;49.52;102039.47;5074570;28;20056;-69
2022/08/29 04:38:15;;;;;;;7.75;4.30;;;;;;;16.80;49.75;102043.41;5095250;28;20059;-69
2022/08/29 04:40:43;;;;;;;6.55;3.92;;;;;;;16.75;49.62;102040.19;5094742;28;20040;-69
2022/08/29 04:43:12;;;;;;;6.50;3.80;;;;;;;16.72;49.88;102046.72;5094960;28;20048;-69
2022/08/29 04:45:41;;;;;;;5.22;3.60;;;;;;;16.71;49.72;102041.41;5095319;28;20040;-69
2022/08/29 04:48:09;;;;;;;8.80;3.50;;;;;;;16.72;49.88;102043.13;5094863;28;20051;-69
2022/08/29 04:50:36;;;;;;;6.68;4.05;;;;;;;16.71;49.95;102049.53;5094920;28;20067;-69
2022/08/29 04:53:02;;;;;;;6.03;3.67;;;;;;;16.69;50.33;102051.50;5093758;28;20047;-69
2022/08/29 04:55:31;;;;;;;4.45;3.30;;;;;;;16.67;50.34;102054.34;5095002;28;20047;-69
2022/08/29 04:57:58;;;;;;;6.88;4.00;;;;;;;16.65;50.29;102047.28;5094716;28;20533;-69
2022/08/29 05:00:27;;;;;;;9.50;3.83;;;;;;;16.62;50.13;102050.22;5094434;28;20040;-69
2022/08/29 05:02:55;;;;;;;6.32;3.35;;;;;;;16.60;50.13;102052.19;5094551;28;20464;-69
2022/08/29 05:05:24;;;;;;;7.07;3.55;;;;;;;16.56;50.29;102051.56;5093511;28;20498;-69
2022/08/29 05:07:50;;;;;;;6.20;3.45;;;;;;;16.53;50.60;102057.22;5094169;28;20055;-69
2022/08/29 05:10:19;;;;;;;5.65;2.90;;;;;;;16.48;50.69;102057.59;5094514;28;20403;-69
2022/08/29 05:12:46;;;;;;;4.28;3.20;;;;;;;16.46;50.51;102053.25;5093548;28;20044;-69
2022/08/29 05:15:13;;;;;;;5.78;2.78;;;;;;;16.43;50.52;102067.06;5094413;28;20040;-69
2022/08/29 05:17:40;;;;;;;6.30;3.45;;;;;;;16.41;50.93;102078.00;5093154;28;20059;-69
2022/08/29 05:20:08;;;;;;;9.07;3.45;;;;;;;16.42;50.84;102070.75;5094319;28;20059;-70
2022/08/29 05:22:34;;;;;;;4.93;3.50;;;;;;;16.46;51.02;102077.66;5077442;28;20401;-70
2022/08/29 05:25:03;;;;;;;5.60;3.05;;;;;;;16.50;51.34;102076.44;5076598;28;20490;-70
2022/08/29 05:27:30;;;;;;;4.30;3.13;;;;;;;16.51;51.32;102081.75;5094059;28;20414;-70
2022/08/29 05:29:57;;;;;;;10.20;4.30;;;;;;;16.53;50.93;102074.38;5074851;28;20508;-70
2022/08/29 05:32:24;;;;;;;7.18;4.07;;;;;;;16.51;51.13;102075.47;5094149;28;20394;-69
2022/08/29 05:34:55;;;;;;;9.32;3.60;;;;;;;16.49;50.70;102077.44;5094098;28;20036;-69
2022/08/29 05:37:22;;;;;;;5.97;3.67;;;;;;;16.48;50.90;102075.69;5093646;28;20062;-69
2022/08/29 05:39:49;;;;;;;9.90;3.95;;;;;;;16.49;50.97;102070.16;5058542;28;20044;-68
2022/08/29 05:42:18;;;;;;;5.60;3.72;;;;;;;16.53;51.08;102071.66;5073173;28;20395;-69
2022/08/29 05:44:45;;;;;;;7.03;3.90;;;;;;;16.57;50.97;102075.00;5055908;28;20055;-69
2022/08/29 05:47:14;;;;;;;6.85;4.00;;;;;;;16.61;50.92;102073.78;5073031;28;20040;-69
2022/08/29 05:49:42;;;;;;;7.07;3.85;;;;;;;16.64;51.30;102075.38;5073544;28;20059;-69
2022/08/29 05:52:10;;;;;;;6.60;3.35;;;;;;;16.67;51.37;102080.59;5090042;28;20036;-69
2022/08/29 05:54:39;;;;;;;7.35;4.03;;;;;;;16.72;51.06;102084.69;5075592;28;20404;-69
2022/08/29 05:57:07;;;;;;;9.38;4.30;;;;;;;16.75;51.84;102079.03;5093458;28;20046;-69
2022/08/29 05:59:34;;;;;;;5.75;3.80;;;;;;;16.79;51.37;102080.53;5091511;28;20056;-70
2022/08/29 06:02:02;;;;;;;7.90;4.43;;;;;;;16.84;51.79;102082.88;5072814;28;20040;-69
2022/08/29 06:04:29;;;;;;;9.40;3.90;;;;;;;16.88;51.70;102086.22;5073031;28;20514;-69
2022/08/29 06:06:56;;;;;;;7.50;3.85;;;;;;;16.92;51.72;102088.56;5072402;28;20060;-69
2022/08/29 06:09:22;;;;;;;9.40;4.10;;;;;;;16.99;52.05;102095.25;5055015;28;20041;-68
2022/08/29 06:11:51;;;;;;;10.35;5.25;;;;;;;17.04;52.09;102098.47;5072675;28;20063;-67
2022/08/29 06:14:19;;;;;;;7.22;4.25;;;;;;;17.04;52.19;102094.88;5073982;28;20055;-68
2022/08/29 06:16:46;;;;;;;8.10;4.32;;;;;;;17.02;52.35;102103.16;5072757;28;20062;-68
2022/08/29 06:19:13;;;;;;;6.82;5.10;;;;;;;17.00;52.48;102099.69;5072928;28;20410;-68
2022/08/29 06:21:40;;;;;;;8.52;4.35;;;;;;;16.99;52.45;102106.09;5072805;28;20399;-69
2022/08/29 06:24:07;;;;;;;9.32;5.80;;;;;;;17.02;52.76;102108.56;5067335;28;20048;-68
2022/08/29 06:26:34;;;;;;;9.50;5.07;;;;;;;17.13;53.23;102105.06;5093360;28;20038;-69
2022/08/29 06:29:06;;;;;;;7.95;5.25;;;;;;;17.23;53.15;102110.63;5092198;28;20405;-69
2022/08/29 06:31:33;;;;;;;9.23;5.55;;;;;;;17.35;53.49;102106.94;5092377;28;20040;-68
2022/08/29 06:34:03;;;;;;;8.52;5.75;;;;;;;17.47;53.97;102111.38;5092640;28;20040;-68
2022/08/29 06:36:30;;;;;;;7.93;5.40;;;;;;;17.58;53.82;102111.38;5090292;28;20036;-68
2022/08/29 06:39:00;;;;;;;7.45;5.65;;;;;;;17.72;54.19;102111.16;5092020;28;20438;-68
2022/08/29 06:41:28;;;;;;;9.18;5.55;;;;;;;17.91;54.27;102115.97;5091745;28;20525;-69
2022/08/29 06:44:00;;;;;;;9.63;6.00;;;;;;;18.04;54.26;102110.41;5073730;28;20044;-68
2022/08/29 06:46:29;;;;;;;16.27;7.65;;;;;;;18.14;54.23;102103.22;5092321;28;20512;-68
2022/08/29 06:48:58;;;;;;;8.68;5.93;;;;;;;18.26;53.93;102106.75;5093561;28;20044;-69
2022/08/29 06:51:26;;;;;;;12.75;6.43;;;;;;;18.34;53.78;102104.25;5093693;28;20048;-71
2022/08/29 06:53:53;;;;;;;13.98;7.03;;;;;;;18.43;53.78;102103.50;5093762;28;20059;-69
2022/08/29 06:56:20;;;;;;;10.52;6.50;;;;;;;18.53;54.18;102104.44;5078090;28;20494;-71
2022/08/29 06:58:46;;;;;;;12.18;6.10;;;;;;;18.63;53.64;102102.72;5072733;28;20048;-68
2022/08/29 07:01:16;;;;;;;12.35;6.85;;;;;;;18.77;53.87;102111.56;5073247;28;20040;-69
2022/08/29 07:03:46;;;;;;;8.85;5.45;;;;;;;18.89;53.73;102119.53;5073327;28;20499;-69
2022/08/29 07:06:15;;;;;;;10.43;6.45;;;;;;;19.00;54.04;102119.47;5073042;28;20040;-69
2022/08/29 07:08:42;;;;;;;9.50;6.65;;;;;;;19.06;53.54;102118.06;5073023;28;20047;-69
2022/08/29 07:11:22;;;;;;;12.73;7.18;;;;;;;19.14;53.79;102126.44;5072866;28;20049;-69
2022/08/29 07:13:50;;;;;;;12.27;7.30;;;;;;;19.27;53.56;102124.38;5073096;28;20044;-69
2022/08/29 07:16:17;;;;;;;13.43;5.93;;;;;;;19.42;53.42;102124.91;5055447;28;20040;-68
2022/08/29 07:18:45;;;;;;;9.57;5.75;;;;;;;19.58;53.04;102133.50;5081639;28;20054;-69
2022/08/29 07:21:17;;;;;;;12.55;6.28;;;;;;;19.74;53.19;102137.56;5075079;28;20457;-69
2022/08/29 07:23:49;;;;;;;16.10;7.72;;;;;;;19.87;52.92;102132.75;5077996;28;20040;-69
2022/08/29 07:26:25;;;;;;;13.30;6.63;;;;;;;19.99;52.92;102129.78;5091947;28;20036;-68
2022/08/29 07:28:54;;;;;;;11.40;6.20;;;;;;;20.12;52.68;102135.00;5092968;28;20382;-69
2022/08/29 07:31:21;;;;;;;11.15;6.53;;;;;;;20.23;52.83;102126.69;5087170;28;20032;-69
2022/08/29 07:34:39;;;;;;;12.40;6.30;;;;;;;20.37;52.21;102132.75;5073140;28;20037;-68
2022/08/29 07:37:06;;;;;;;10.05;6.53;;;;;;;20.52;51.98;102126.78;5090163;28;20040;-69
2022/08/29 07:39:32;;;;;;;13.38;6.57;;;;;;;20.63;52.10;102129.34;5092721;28;20494;-70
2022/08/29 07:41:59;;;;;;;9.82;5.53;;;;;;;20.76;51.73;102123.59;5092859;28;20044;-70
2022/08/29 07:44:27;;;;;;;11.07;6.40;;;;;;;20.97;51.43;102115.28;5092588;28;20041;-71
2022/08/29 07:47:00;;;;;;;10.27;5.47;;;;;;;21.18;51.21;102112.38;5083238;28;20052;-70
2022/08/29 07:49:29;;;;;;;8.85;5.50;;;;;;;21.40;51.24;102112.06;5054040;28;20048;-69
2022/08/29 07:52:06;;;;;;;11.80;6.32;;;;;;;21.69;50.60;102116.56;5086294;28;20044;-70
2022/08/29 07:54:37;;;;;;;10.73;4.70;;;;;;;21.94;50.68;102112.28;5092771;28;20036;-70
2022/08/29 07:57:03;;;;;;;10.35;5.15;;;;;;;22.21;49.64;102117.75;5075952;28;20048;-70
2022/08/29 07:59:30;;;;;;;7.25;4.40;;;;;;;22.48;49.42;102108.66;5092369;28;20048;-70
2022/08/29 08:01:56;;;;;;;8.93;4.30;;;;;;;22.74;48.68;102117.81;5087490;28;20044;-71
2022/08/29 08:04:28;;;;;;;9.18;3.95;;;;;;;22.95;47.88;102122.13;5072450;28;20043;-70
2022/08/29 08:06:55;;;;;;;7.47;3.30;;;;;;;23.10;47.39;102120.56;5072178;28;20056;-71
2022/08/29 08:09:22;;;;;;;10.98;3.65;;;;;;;23.26;46.94;102109.72;5072761;28;20505;-71
2022/08/29 08:11:49;;;;;;;6.82;2.80;;;;;;;23.51;46.44;102109.84;5079537;28;20115;-71
2022/08/29 08:14:18;;;;;;;5.05;2.70;;;;;;;23.75;45.93;102110.88;5058130;28;20051;-70
2022/08/29 08:16:44;;;;;;;5.40;3.20;;;;;;;23.99;45.45;102103.78;5076097;28;20051;-70
2022/08/29 08:19:15;;;;;;;6.40;3.42;;;;;;;24.19;44.76;102107.09;5058155;28;20410;-70
2022/08/29 08:21:43;;;;;;;7.53;3.17;;;;;;;24.38;44.65;102106.84;5075230;28;20552;-70
2022/08/29 08:24:17;;;;;;;6.85;3.20;;;;;;;24.52;44.34;102105.31;5076332;28;20041;-70
2022/08/29 08:26:48;;;;;;;6.88;3.00;;;;;;;24.58;43.72;102110.16;5096011;28;20291;-70
2022/08/29 08:29:16;;;;;;;8.80;3.33;;;;;;;24.64;42.96;102107.59;5095850;28;20044;-70
2022/08/29 08:31:44;;;;;;;9.60;3.00;;;;;;;24.69;42.93;102107.94;5093952;28;20098;-71
2022/08/29 08:34:16;;;;;;;6.72;3.05;;;;;;;24.81;42.95;102113.09;5095169;28;20569;-70
2022/08/29 08:36:43;;;;;;;4.22;2.75;;;;;;;24.91;42.41;102114.63;5081255;28;20096;-69
2022/08/29 08:39:12;;;;;;;5.32;2.60;;;;;;;24.98;41.75;102103.84;5075160;28;20465;-70
2022/08/29 08:42:14;;;;;;;5.35;2.60;;;;;;;25.02;41.50;102111.56;5074892;28;20036;-69
2022/08/29 08:45:08;;;;;;;4.70;2.80;;;;;;;25.05;41.08;102104.00;4974379;28;20065;-69
2022/08/29 08:47:43;;;;;;;5.38;2.47;;;;;;;25.04;40.85;102108.66;5008323;28;20049;-70
2022/08/29 08:50:45;;;;;;;5.50;2.85;;;;;;;25.01;40.74;102112.59;5056936;28;20076;-71
2022/08/29 08:53:27;;;;;;;5.50;2.55;;;;;;;25.03;40.47;102110.53;5064793;28;20060;-71
2022/08/29 08:55:56;;;;;;;5.63;2.35;;;;;;;25.10;40.22;102107.94;5074682;28;20055;-70
2022/08/29 08:58:54;;;;;;;3.65;2.40;;;;;;;25.15;39.99;102102.78;5074541;28;20047;-70
2022/08/29 09:01:26;;;;;;;4.55;2.40;;;;;;;25.20;39.71;102103.13;5074541;28;20056;-69
2022/08/29 09:04:31;;;;;;;6.35;2.78;;;;;;;25.27;39.46;102104.19;5074378;28;20032;-70
2022/08/29 09:07:13;;;;;;;5.28;2.50;;;;;;;25.40;39.42;102108.28;5075895;28;20040;-71
2022/08/29 09:10:11;;;;;;;4.38;2.33;;;;;;;25.44;39.28;102112.38;5074196;28;20051;-71
2022/08/29 09:13:00;;;;;;;9.00;3.30;;;;;;;25.47;38.99;102117.53;5073835;28;20390;-70
2022/08/29 09:15:39;;;;;;;11.85;2.70;;;;;;;25.47;38.79;102115.66;5073843;28;20067;-70
2022/08/29 09:18:12;;;;;;;14.02;3.50;;;;;;;25.56;38.77;102114.59;5073527;28;20049;-70
2022/08/29 09:20:40;;;;;;;5.03;2.40;;;;;;;25.63;38.68;102115.59;5038710;28;20135;-70
2022/08/29 09:23:23;;;;;;;4.65;2.50;;;;;;;25.63;38.09;102118.34;5072944;28;20077;-70
2022/08/29 09:25:50;;;;;;;3.25;1.92;;;;;;;25.63;37.89;102114.75;5082677;28;20405;-70
2022/08/29 09:28:17;;;;;;;5.25;2.20;;;;;;;25.64;37.89;102116.44;5094981;28;20050;-70
2022/08/29 09:31:15;;;;;;;4.68;2.40;;;;;;;25.64;37.52;102105.44;5095123;28;20039;-69
2022/08/29 09:33:55;;;;;;;6.72;2.35;;;;;;;25.70;37.43;102115.78;5095122;28;20071;-70
2022/08/29 09:36:40;;;;;;;4.97;2.40;;;;;;;25.78;37.36;102106.63;5095127;28;20048;-70
2022/08/29 09:39:22;;;;;;;;;;;;;;;25.88;37.53;102108.13;5093434;28;20055;-70
2022/08/29 09:41:59;;;;;;;9.20;3.22;;;;;;;25.96;37.74;102102.59;5076869;28;19923;-71
2022/08/29 09:44:34;;;;;;;6.30;3.05;;;;;;;25.99;37.37;102104.13;5093495;28;20047;-71
2022/08/29 09:47:07;;;;;;;6.88;2.63;;;;;;;25.97;37.18;102101.56;5074158;28;20044;-70
2022/08/29 09:49:37;;;;;;;3.70;2.38;;;;;;;25.95;37.12;102102.75;5074506;28;20044;-71
2022/08/29 09:52:24;;;;;;;7.65;2.70;;;;;;;25.87;36.84;102105.56;5074136;28;20032;-70
2022/08/29 09:54:55;;;;;;;4.45;2.45;;;;;;;25.84;36.99;102104.03;5056543;28;20037;-70
2022/08/29 09:57:27;;;;;;;8.77;2.70;;;;;;;25.83;37.03;102107.81;5074237;28;20474;-70
2022/08/29 10:00:15;;;;;;;8.25;2.28;;;;;;;25.78;36.90;102101.13;5086495;28;20049;-70
2022/08/29 10:02:45;;;;;;;4.65;2.40;;;;;;;25.79;37.17;102108.34;5074047;28;20526;-70
2022/08/29 10:05:43;;;;;;;9.32;2.70;;;;;;;25.76;37.02;102104.06;5074188;28;20457;-70
2022/08/29 10:08:37;;;;;;;6.15;2.97;;;;;;;25.75;36.99;102110.59;5073776;28;20119;-71
2022/08/29 10:11:18;;;;;;;7.75;2.97;;;;;;;25.74;37.07;102110.78;5074054;28;20063;-71
2022/08/29 10:13:54;;;;;;;3.70;2.40;;;;;;;25.73;36.89;102112.66;5075056;28;20040;-71
2022/08/29 10:16:36;;;;;;;6.22;3.10;;;;;;;25.74;36.59;102116.28;5073758;28;20046;-71
2022/08/29 10:19:19;;;;;;;8.02;3.25;;;;;;;25.73;36.77;102118.16;5073927;28;20090;-71
2022/08/29 10:21:57;;;;;;;5.13;2.80;;;;;;;25.79;36.84;102120.22;5073769;28;20044;-71
2022/08/29 10:24:53;;;;;;;7.15;2.75;;;;;;;25.83;36.79;102115.22;5075301;28;20036;-70
2022/08/29 10:27:23;;;;;;;7.57;2.90;;;;;;;25.86;36.55;102112.09;5055741;28;20044;-70
2022/08/29 10:30:05;;;;;;;6.13;2.38;;;;;;;25.84;36.56;102106.78;5073412;28;20057;-71
2022/08/29 10:32:50;;;;;;;5.82;2.50;;;;;;;25.91;36.53;102099.53;5054908;28;20037;-70
2022/08/29 10:35:26;;;;;;;;;;;;;;;26.05;36.64;102097.06;5073966;28;20044;-70
2022/08/29 10:38:21;;;;;;;5.05;2.55;;;;;;;26.25;36.69;102093.69;5055523;28;20375;-72
2022/08/29 10:40:54;;;;;;;6.57;3.22;;;;;;;26.47;36.67;102093.91;5055797;28;20040;-71
2022/08/29 10:43:27;;;;;;;3.83;2.50;;;;;;;26.63;36.29;102098.44;5074149;28;20036;-70
2022/08/29 10:46:14;;;;;;;5.85;3.00;;;;;;;26.74;36.00;102089.75;5076280;28;20044;-71
2022/08/29 10:48:54;;;;;;;7.80;2.55;;;;;;;26.83;35.77;102091.41;5075414;28;20044;-72
2022/08/29 10:51:30;;;;;;;6.85;3.05;;;;;;;26.84;35.84;102093.13;5075318;28;20505;-72
2022/08/29 10:54:32;;;;;;;6.65;2.67;;;;;;;26.84;35.71;102090.38;5075346;28;20403;-72
2022/08/29 10:57:02;;;;;;;5.25;2.35;;;;;;;26.90;35.56;102084.13;5060967;28;20512;-72
2022/08/29 10:59:44;;;;;;;5.03;2.53;;;;;;;26.89;35.20;102087.91;5074406;28;20052;-72
2022/08/29 11:02:19;;;;;;;3.65;2.17;;;;;;;26.94;35.26;102092.88;5072781;28;20045;-72
2022/08/29 11:04:55;;;;;;;5.30;2.40;;;;;;;26.99;35.12;102083.03;5055096;28;20512;-72
2022/08/29 11:07:27;;;;;;;5.93;2.63;;;;;;;27.15;35.22;102084.75;5077479;28;20059;-72
2022/08/29 11:09:59;;;;;;;5.00;2.50;;;;;;;27.37;34.93;102085.72;5085774;28;20056;-71
2022/08/29 11:12:43;;;;;;;7.68;2.63;;;;;;;27.53;34.73;102077.31;5092639;28;20043;-70
2022/08/29 11:15:25;;;;;;;7.20;2.65;;;;;;;27.73;34.51;102072.09;5092979;28;20115;-72
2022/08/29 11:18:00;;;;;;;6.93;2.30;;;;;;;27.86;34.33;102069.50;5092638;28;20054;-71
2022/08/29 11:20:37;;;;;;;5.43;3.00;;;;;;;27.94;34.01;102061.09;5081385;28;20406;-71
2022/08/29 11:23:37;;;;;;;7.03;2.30;;;;;;;27.98;33.79;102058.81;5072247;28;20051;-71
2022/08/29 11:26:08;;;;;;;9.85;3.10;;;;;;;28.08;33.58;102056.59;5046926;28;20041;-70
2022/08/29 11:28:51;;;;;;;6.00;2.28;;;;;;;28.16;33.50;102050.94;5072460;28;20047;-70
2022/08/29 11:31:29;;;;;;;5.05;2.65;;;;;;;28.32;33.43;102045.22;5072672;28;20052;-70
2022/08/29 11:34:05;;;;;;;5.90;2.50;;;;;;;28.46;33.24;102041.53;5072352;28;20047;-71
2022/08/29 11:36:49;;;;;;;6.47;2.08;;;;;;;28.60;33.28;102042.50;5072712;28;20041;-72
2022/08/29 11:39:44;;;;;;;6.82;2.67;;;;;;;28.65;32.98;102041.91;5072269;28;20055;-71
2022/08/29 11:42:15;;;;;;;5.57;2.65;;;;;;;28.67;32.91;102037.03;5072078;28;20045;-72
2022/08/29 11:45:05;;;;;;;3.38;2.35;;;;;;;28.69;32.71;102033.03;5073910;28;20040;-71
2022/08/29 11:47:44;;;;;;;5.13;2.25;;;;;;;28.73;32.65;102022.41;5057726;28;20044;-72
2022/08/29 11:50:20;;;;;;;5.13;2.25;;;;;;;28.85;32.78;102020.84;5074684;28;20387;-72